Time;durP1;ratioP1;P1;durP2;ratioP2;P2;SDS_P1;SDS_P2;PMS_P1;PMS_P2;Temp;Humidity;BMP_temperature;BMP_pressure;BME280_temperature;BME280_humidity;BME280_pressure;Samples;Min_cycle;Max_cycle;Signal;HPM_P1;HPM_P2
2021/06/14 00:00:48;;;;;;;7.67;3.22;;;;;;;17.45;68.44;98844.39;1711923;83;21168;-42
2021/06/14 00:03:15;;;;;;;3.95;2.98;;;;;;;17.45;68.49;98845.17;1712051;83;21022;-42
2021/06/14 00:05:44;;;;;;;4.40;3.50;;;;;;;17.43;68.38;98839.94;1711882;83;20950;-42
2021/06/14 00:08:17;;;;;;;7.62;3.55;;;;;;;17.39;68.27;98833.13;1712155;83;20997;-42
2021/06/14 00:10:49;;;;;;;5.97;2.90;;;;;;;17.34;68.17;98825.38;1711863;83;21021;-42
2021/06/14 00:13:16;;;;;;;6.97;3.45;;;;;;;17.27;68.23;98829.04;1712134;83;21129;-42
2021/06/14 00:15:44;;;;;;;4.40;3.10;;;;;;;17.25;68.40;98833.37;1708013;82;21057;-42
2021/06/14 00:18:10;;;;;;;5.62;3.02;;;;;;;17.22;68.68;98836.95;1675103;85;21059;-42
2021/06/14 00:20:39;;;;;;;4.25;2.75;;;;;;;17.22;68.67;98836.95;1675120;85;21052;-42
2021/06/14 00:23:09;;;;;;;5.50;3.10;;;;;;;17.21;68.61;98836.17;1675154;85;21126;-42
2021/06/14 00:25:37;;;;;;;5.85;3.45;;;;;;;17.23;68.33;98838.51;1675274;85;21933;-42
2021/06/14 00:28:04;;;;;;;9.30;3.52;;;;;;;17.23;68.41;98841.25;1675103;85;21019;-42
2021/06/14 00:30:39;;;;;;;5.10;3.10;;;;;;;17.21;68.35;98834.02;1675191;85;21549;-41
2021/06/14 00:33:06;;;;;;;5.22;3.20;;;;;;;17.21;68.21;98838.14;1669384;85;21704;-42
2021/06/14 00:35:33;;;;;;;3.47;3.15;;;;;;;17.19;68.42;98844.02;1675213;85;21048;-41
2021/06/14 00:38:00;;;;;;;4.90;3.20;;;;;;;17.20;68.42;98848.91;1675185;85;21154;-42
2021/06/14 00:40:27;;;;;;;4.25;3.20;;;;;;;17.19;68.55;98844.61;1675184;85;21011;-42
2021/06/14 00:42:54;;;;;;;8.30;3.50;;;;;;;17.18;68.58;98840.34;1675100;85;20971;-41
2021/06/14 00:45:24;;;;;;;6.72;3.20;;;;;;;17.18;68.52;98832.12;1675245;85;21059;-42
2021/06/14 00:47:51;;;;;;;4.25;3.20;;;;;;;17.19;68.35;98833.66;1675616;85;21082;-41
2021/06/14 00:50:22;;;;;;;5.87;3.45;;;;;;;17.17;68.37;98831.35;1675157;85;21145;-41
2021/06/14 00:52:49;;;;;;;7.15;4.00;;;;;;;17.16;68.46;98838.02;1675222;85;20972;-42
2021/06/14 00:55:18;;;;;;;7.12;3.58;;;;;;;17.17;68.57;98837.42;1675311;85;21047;-42
2021/06/14 00:57:45;;;;;;;6.25;4.00;;;;;;;17.18;68.57;98834.87;1675062;85;21534;-41
2021/06/14 01:00:15;;;;;;;5.10;3.72;;;;;;;17.20;68.52;98833.84;1662199;86;21012;-42
2021/06/14 01:02:43;;;;;;;5.58;3.55;;;;;;;17.20;68.57;98844.80;1661598;86;21130;-41
2021/06/14 01:05:12;;;;;;;4.83;3.33;;;;;;;17.17;68.76;98841.53;1662457;86;21558;-42
2021/06/14 01:07:39;;;;;;;6.35;3.45;;;;;;;17.10;69.17;98838.30;1662328;86;21033;-41
2021/06/14 01:10:07;;;;;;;5.40;3.20;;;;;;;17.04;69.30;98829.00;1662387;86;21539;-41
2021/06/14 01:12:54;;;;;;;7.45;3.40;;;;;;;16.98;69.23;98824.42;1662614;86;20997;-41
2021/06/14 01:15:21;;;;;;;6.80;3.45;;;;;;;16.85;69.36;98816.77;1662360;84;21150;-42
2021/06/14 01:17:58;;;;;;;4.70;3.08;;;;;;;16.75;69.77;98819.07;1670902;85;21539;-42
2021/06/14 01:20:40;;;;;;;6.33;3.02;;;;;;;16.70;69.83;98825.01;1721165;83;21001;-41
2021/06/14 01:23:38;;;;;;;5.05;3.15;;;;;;;16.59;70.12;98825.00;1721559;83;20950;-41
2021/06/14 01:26:21;;;;;;;4.47;2.90;;;;;;;16.52;70.17;98828.56;1721358;82;21028;-41
2021/06/14 01:28:55;;;;;;;5.08;2.72;;;;;;;16.44;70.13;98830.63;1721563;83;21809;-41
2021/06/14 01:31:25;;;;;;;4.83;3.22;;;;;;;16.40;70.41;98834.61;1721300;82;21012;-41
2021/06/14 01:33:52;;;;;;;4.77;3.37;;;;;;;16.41;70.71;98830.69;1721854;83;20997;-41
2021/06/14 01:36:26;;;;;;;6.78;3.10;;;;;;;16.40;70.74;98839.48;1721155;83;21005;-41
2021/06/14 01:38:53;;;;;;;4.28;3.40;;;;;;;16.41;70.92;98850.59;1721542;83;21570;-41
2021/06/14 01:41:21;;;;;;;6.53;3.22;;;;;;;16.47;70.62;98855.80;1702794;83;21160;-41
2021/06/14 01:43:48;;;;;;;7.83;3.30;;;;;;;16.54;70.45;98859.05;1721372;83;21621;-41
2021/06/14 01:46:19;;;;;;;6.55;3.17;;;;;;;16.60;70.23;98847.08;1721149;82;21020;-41
2021/06/14 01:48:47;;;;;;;5.50;3.50;;;;;;;16.63;70.23;98845.66;1721373;83;21240;-41
2021/06/14 01:51:20;;;;;;;6.10;3.12;;;;;;;16.64;70.12;98849.17;1721366;83;21076;-41
2021/06/14 01:54:06;;;;;;;4.12;3.08;;;;;;;16.62;70.20;98841.95;1721591;83;21598;-41
2021/06/14 01:56:49;;;;;;;5.47;3.40;;;;;;;16.58;70.29;98846.11;1705188;83;21530;-41
2021/06/14 01:59:25;;;;;;;6.70;3.25;;;;;;;16.55;70.32;98844.18;1721314;83;21100;-42
2021/06/14 02:01:53;;;;;;;5.10;3.17;;;;;;;16.52;70.40;98842.25;1720963;83;21028;-42
2021/06/14 02:04:20;;;;;;;6.00;3.12;;;;;;;16.48;70.36;98850.51;1721598;82;21032;-41
2021/06/14 02:06:50;;;;;;;5.10;3.50;;;;;;;16.42;70.65;98847.27;1700663;83;21246;-41
2021/06/14 02:09:22;;;;;;;6.42;3.70;;;;;;;16.39;70.42;98844.77;1703015;83;21313;-41
2021/06/14 02:11:57;;;;;;;5.60;3.22;;;;;;;16.38;70.54;98845.17;1721304;83;20937;-41
2021/06/14 02:14:27;;;;;;;6.58;3.65;;;;;;;16.35;70.64;98839.16;1703969;83;21003;-42
2021/06/14 02:16:55;;;;;;;8.15;3.37;;;;;;;16.35;70.69;98839.16;1716940;82;21076;-41
2021/06/14 02:19:22;;;;;;;5.55;3.33;;;;;;;16.34;70.83;98837.02;1713860;83;21202;-42
2021/06/14 02:21:49;;;;;;;5.95;3.05;;;;;;;16.31;70.78;98838.44;1713468;83;20933;-42
2021/06/14 02:24:17;;;;;;;3.98;2.77;;;;;;;16.26;70.74;98843.00;1713571;83;21020;-42
2021/06/14 02:26:45;;;;;;;5.42;2.98;;;;;;;16.19;70.82;98849.31;1713625;83;21029;-41
2021/06/14 02:29:14;;;;;;;6.70;3.40;;;;;;;16.16;71.04;98850.73;1713998;83;21065;-41
2021/06/14 02:31:42;;;;;;;5.15;3.10;;;;;;;16.16;71.12;98852.88;1713785;82;21159;-41
2021/06/14 02:34:10;;;;;;;7.03;3.15;;;;;;;16.17;71.19;98857.14;1713956;83;21049;-41
2021/06/14 02:36:38;;;;;;;6.87;3.22;;;;;;;16.20;71.44;98860.44;1703705;83;21479;-41
2021/06/14 02:39:12;;;;;;;4.33;3.00;;;;;;;16.25;71.25;98871.52;1703336;83;21061;-41
2021/06/14 02:41:40;;;;;;;4.62;3.10;;;;;;;16.27;71.07;98867.77;1713597;83;21044;-41
2021/06/14 02:44:07;;;;;;;4.47;3.02;;;;;;;16.25;70.59;98872.30;1713639;82;21547;-41
2021/06/14 02:46:41;;;;;;;4.10;3.10;;;;;;;16.22;70.67;98867.63;1713492;83;20926;-41
2021/06/14 02:49:11;;;;;;;4.65;2.67;;;;;;;16.20;71.16;98865.14;1713652;82;21013;-41
2021/06/14 02:51:40;;;;;;;8.45;3.35;;;;;;;16.19;71.02;98866.31;1713654;82;20961;-41
2021/06/14 02:54:21;;;;;;;4.90;2.90;;;;;;;16.19;70.67;98870.41;1713615;82;21053;-41
2021/06/14 02:56:49;;;;;;;6.12;3.00;;;;;;;16.17;70.55;98870.06;1713384;83;21531;-41
2021/06/14 02:59:17;;;;;;;3.15;2.62;;;;;;;16.16;70.87;98876.71;1713659;83;21030;-41
2021/06/14 03:01:48;;;;;;;5.92;2.98;;;;;;;16.16;70.92;98879.45;1713876;82;21515;-41
2021/06/14 03:04:16;;;;;;;5.40;2.85;;;;;;;16.15;71.01;98884.73;1713666;83;21392;-41
2021/06/14 03:06:47;;;;;;;7.28;3.17;;;;;;;16.15;71.16;98892.34;1713587;83;21001;-41
2021/06/14 03:09:15;;;;;;;5.95;3.00;;;;;;;16.13;71.39;98886.49;1713575;82;21110;-42
2021/06/14 03:11:44;;;;;;;6.12;3.30;;;;;;;16.15;71.31;98893.70;1713837;82;21472;-41
2021/06/14 03:14:15;;;;;;;5.33;3.00;;;;;;;16.15;71.41;98894.30;1713637;82;20926;-41
2021/06/14 03:16:44;;;;;;;4.92;3.17;;;;;;;16.13;71.52;98892.55;1717140;82;21037;-41
2021/06/14 03:19:12;;;;;;;5.00;3.00;;;;;;;16.12;71.56;98892.39;1726524;83;21076;-41
2021/06/14 03:21:39;;;;;;;5.33;3.00;;;;;;;16.11;71.84;98892.98;1726334;83;22056;-41
2021/06/14 03:24:08;;;;;;;3.92;2.62;;;;;;;16.11;71.84;98890.24;1726447;83;21015;-41
2021/06/14 03:26:40;;;;;;;5.12;2.83;;;;;;;16.13;72.04;98895.28;1726629;83;21506;-41
2021/06/14 03:29:08;;;;;;;4.87;3.10;;;;;;;16.11;72.16;98900.41;1726593;81;20937;-41
2021/06/14 03:31:37;;;;;;;4.80;3.02;;;;;;;16.09;72.26;98897.48;1756704;81;20978;-41
2021/06/14 03:34:04;;;;;;;7.05;3.05;;;;;;;16.07;72.55;98902.56;1756628;81;21127;-42
2021/06/14 03:36:31;;;;;;;4.75;3.15;;;;;;;16.11;72.60;98900.41;1756381;81;21037;-41
2021/06/14 03:38:59;;;;;;;7.10;2.92;;;;;;;16.17;72.39;98904.25;1756485;81;21024;-41
2021/06/14 03:41:26;;;;;;;5.65;3.12;;;;;;;16.18;72.33;98908.52;1756441;81;21037;-41
2021/06/14 03:43:52;;;;;;;4.67;2.90;;;;;;;16.20;72.47;98907.53;1756566;81;21526;-41
2021/06/14 03:46:20;;;;;;;7.92;3.08;;;;;;;16.23;72.53;98910.80;1756540;81;21158;-42
2021/06/14 03:48:47;;;;;;;4.72;2.80;;;;;;;16.25;72.51;98905.72;1756541;81;21004;-41
2021/06/14 03:51:14;;;;;;;3.58;2.70;;;;;;;16.27;72.56;98911.53;1756544;81;21000;-41
2021/06/14 03:53:41;;;;;;;5.60;3.12;;;;;;;16.30;72.44;98904.68;1756397;81;20941;-41
2021/06/14 03:56:10;;;;;;;6.45;3.20;;;;;;;16.34;72.37;98899.16;1756713;81;21491;-41
2021/06/14 03:58:37;;;;;;;5.20;3.33;;;;;;;16.36;72.38;98906.38;1756502;81;21069;-41
2021/06/14 04:01:04;;;;;;;6.72;3.35;;;;;;;16.40;72.44;98911.98;1756710;81;21020;-41
2021/06/14 04:03:31;;;;;;;7.08;3.47;;;;;;;16.45;72.23;98913.50;1756361;81;21008;-41
2021/06/14 04:06:04;;;;;;;9.88;3.47;;;;;;;16.48;72.16;98913.45;1756620;81;21637;-42
2021/06/14 04:08:30;;;;;;;7.17;3.10;;;;;;;16.52;72.18;98917.50;1755925;81;21016;-41
2021/06/14 04:10:56;;;;;;;5.12;3.40;;;;;;;16.54;72.21;98916.51;1756461;81;21522;-41
2021/06/14 04:13:24;;;;;;;5.30;3.15;;;;;;;16.55;72.21;98907.12;1756491;81;21203;-41
2021/06/14 04:15:51;;;;;;;7.78;3.67;;;;;;;16.58;72.10;98906.32;1750073;81;20973;-41
2021/06/14 04:18:18;;;;;;;5.55;3.35;;;;;;;16.59;71.85;98913.35;1726425;82;21473;-41
2021/06/14 04:20:46;;;;;;;5.67;3.22;;;;;;;16.60;72.09;98912.17;1726316;83;21028;-41
2021/06/14 04:23:12;;;;;;;5.28;3.20;;;;;;;16.65;72.29;98918.56;1726478;83;21186;-42
2021/06/14 04:25:39;;;;;;;6.83;3.33;;;;;;;16.66;72.36;98924.19;1726241;82;20917;-42
2021/06/14 04:28:07;;;;;;;6.00;3.47;;;;;;;16.69;72.47;98920.66;1726415;83;21033;-41
2021/06/14 04:30:35;;;;;;;6.15;3.42;;;;;;;16.70;72.46;98923.55;1726501;83;21012;-42
2021/06/14 04:33:01;;;;;;;6.55;3.77;;;;;;;16.73;72.48;98916.49;1726390;82;21025;-42
2021/06/14 04:35:29;;;;;;;5.37;3.52;;;;;;;16.80;72.56;98917.75;1726516;83;21946;-42
2021/06/14 04:37:56;;;;;;;4.67;3.40;;;;;;;16.85;72.21;98912.59;1726375;83;20965;-42
2021/06/14 04:40:22;;;;;;;5.97;2.98;;;;;;;16.94;72.20;98923.06;1726403;82;21029;-42
2021/06/14 04:42:49;;;;;;;5.22;3.30;;;;;;;17.01;72.04;98930.39;1726541;83;21032;-42
2021/06/14 04:45:15;;;;;;;5.20;3.27;;;;;;;17.05;72.01;98935.22;1726318;82;21009;-42
2021/06/14 04:47:45;;;;;;;5.83;3.27;;;;;;;17.09;72.05;98944.19;1726307;82;21140;-41
2021/06/14 04:50:12;;;;;;;4.53;3.25;;;;;;;17.10;71.80;98941.59;1726720;83;21035;-42
2021/06/14 04:52:38;;;;;;;6.05;3.80;;;;;;;17.12;71.89;98948.23;1726390;82;21550;-42
2021/06/14 04:55:06;;;;;;;5.33;3.10;;;;;;;17.13;72.12;98950.38;1726257;83;20965;-42
2021/06/14 04:57:33;;;;;;;9.00;3.65;;;;;;;17.16;72.18;98954.44;1726343;83;21020;-41
2021/06/14 05:00:00;;;;;;;3.92;2.90;;;;;;;17.20;72.37;98951.63;1726635;82;21140;-41
2021/06/14 05:02:26;;;;;;;6.15;3.40;;;;;;;17.24;72.10;98949.02;1726344;83;20977;-41
2021/06/14 05:04:53;;;;;;;4.05;3.00;;;;;;;17.26;71.83;98953.50;1726733;82;21117;-41
2021/06/14 05:07:19;;;;;;;5.05;3.00;;;;;;;17.33;71.96;98955.38;1726442;82;21525;-41
2021/06/14 05:09:46;;;;;;;4.72;2.87;;;;;;;17.37;70.97;98956.09;1726634;83;20989;-42
2021/06/14 05:12:13;;;;;;;4.22;2.92;;;;;;;17.36;71.12;98954.53;1726430;83;21210;-41
2021/06/14 05:14:39;;;;;;;6.00;2.72;;;;;;;17.38;71.19;98953.51;1726627;82;20953;-41
2021/06/14 05:17:06;;;;;;;3.40;2.80;;;;;;;17.40;70.58;98947.03;1726235;81;21057;-42
2021/06/14 05:19:33;;;;;;;8.63;3.87;;;;;;;17.44;70.65;98949.71;1726451;82;21044;-41
2021/06/14 05:22:01;;;;;;;4.33;2.98;;;;;;;17.51;71.13;98953.73;1726352;83;20980;-42
2021/06/14 05:24:29;;;;;;;5.12;2.77;;;;;;;17.60;69.93;98953.41;1726432;83;21308;-42
2021/06/14 05:26:55;;;;;;;8.00;3.05;;;;;;;17.73;70.20;98954.95;1726376;83;20969;-42
2021/06/14 05:29:22;;;;;;;4.60;3.02;;;;;;;17.85;69.34;98962.60;1726411;82;21044;-42
2021/06/14 05:31:48;;;;;;;4.22;2.80;;;;;;;17.94;68.50;98964.20;1726430;83;21040;-42
2021/06/14 05:34:15;;;;;;;4.83;2.98;;;;;;;17.99;68.62;98960.20;1744266;81;21594;-42
2021/06/14 05:36:43;;;;;;;3.37;2.50;;;;;;;18.04;68.64;98963.84;1756607;81;21095;-41
2021/06/14 05:39:10;;;;;;;3.70;2.80;;;;;;;18.12;68.75;98962.52;1756560;81;21492;-42
2021/06/14 05:41:37;;;;;;;4.85;2.87;;;;;;;18.19;67.87;98960.43;1756697;81;21028;-42
2021/06/14 05:44:04;;;;;;;3.62;2.58;;;;;;;18.28;66.70;98970.84;1756748;81;21065;-42
2021/06/14 05:46:31;;;;;;;3.92;2.77;;;;;;;18.32;65.79;98970.77;1756604;81;21025;-42
2021/06/14 05:48:57;;;;;;;3.17;2.65;;;;;;;18.38;65.86;98971.25;1756762;81;21891;-42
2021/06/14 05:51:24;;;;;;;5.15;3.00;;;;;;;18.45;66.37;98975.22;1756559;81;20938;-42
2021/06/14 05:53:50;;;;;;;5.05;2.58;;;;;;;18.53;64.94;98977.24;1756583;81;20976;-42
2021/06/14 05:56:17;;;;;;;3.45;2.65;;;;;;;18.58;65.66;98973.45;1756726;81;21033;-42
2021/06/14 05:58:43;;;;;;;2.80;2.40;;;;;;;18.66;65.51;98983.08;1756574;81;21583;-42
2021/06/14 06:01:10;;;;;;;5.33;3.30;;;;;;;18.76;64.44;98981.91;1756774;81;21158;-42
2021/06/14 06:03:37;;;;;;;4.53;3.00;;;;;;;18.84;64.45;98988.20;1756686;81;20946;-42
2021/06/14 06:06:04;;;;;;;3.30;2.75;;;;;;;18.95;63.89;98989.36;1756665;81;21020;-42
2021/06/14 06:08:31;;;;;;;5.90;3.12;;;;;;;19.06;64.30;98996.80;1756598;81;21010;-42
2021/06/14 06:10:59;;;;;;;4.55;3.05;;;;;;;19.19;65.03;98996.30;1756602;81;20983;-42
2021/06/14 06:13:25;;;;;;;4.10;2.80;;;;;;;19.29;63.08;98988.42;1756524;81;21131;-42
2021/06/14 06:15:52;;;;;;;4.67;2.45;;;;;;;19.35;62.94;98989.47;1756433;81;21037;-42
2021/06/14 06:18:18;;;;;;;5.30;3.00;;;;;;;19.40;63.38;98988.97;1749654;81;20926;-42
2021/06/14 06:20:45;;;;;;;5.60;2.87;;;;;;;19.47;62.61;98979.80;1743540;82;21017;-42
2021/06/14 06:23:11;;;;;;;4.12;3.00;;;;;;;19.56;63.17;98994.34;1743306;82;21013;-42
2021/06/14 06:25:38;;;;;;;4.28;2.60;;;;;;;19.64;62.65;98992.97;1743425;81;21842;-42
2021/06/14 06:28:06;;;;;;;3.62;2.85;;;;;;;19.74;62.49;98996.07;1743233;81;21052;-42
2021/06/14 06:30:37;;;;;;;3.60;2.60;;;;;;;19.80;62.14;99003.36;1743252;81;21020;-42
2021/06/14 06:33:05;;;;;;;4.47;2.62;;;;;;;19.87;61.75;99002.42;1743232;82;20999;-42
2021/06/14 06:35:32;;;;;;;4.22;2.67;;;;;;;19.91;61.44;99005.26;1743500;82;21057;-42
2021/06/14 06:37:59;;;;;;;4.60;2.90;;;;;;;19.98;61.58;99009.82;1707617;84;21142;-42
2021/06/14 06:40:25;;;;;;;4.85;3.20;;;;;;;20.08;60.63;99006.63;1743383;82;20957;-42
2021/06/14 06:42:53;;;;;;;4.17;2.92;;;;;;;20.16;60.59;99003.27;1743279;82;21645;-41
2021/06/14 06:45:20;;;;;;;5.78;2.77;;;;;;;20.23;60.50;99010.58;1743473;81;21073;-42
2021/06/14 06:47:47;;;;;;;8.23;3.20;;;;;;;20.28;60.65;99009.42;1743220;82;21064;-42
2021/06/14 06:50:14;;;;;;;6.65;2.92;;;;;;;20.33;59.43;99015.81;1743544;82;22137;-42
2021/06/14 06:52:41;;;;;;;4.40;2.80;;;;;;;20.34;59.65;99020.12;1685834;84;21004;-42
2021/06/14 06:55:10;;;;;;;4.12;3.08;;;;;;;20.37;61.29;99022.02;1707613;84;21582;-42
2021/06/14 06:57:38;;;;;;;7.28;3.25;;;;;;;20.42;59.77;99024.85;1707673;84;21004;-42
2021/06/14 07:00:08;;;;;;;4.72;3.22;;;;;;;20.43;59.71;99028.38;1707849;84;21499;-42
2021/06/14 07:02:35;;;;;;;8.28;3.05;;;;;;;20.45;60.49;99027.33;1707518;84;22186;-42
2021/06/14 07:05:01;;;;;;;4.40;3.02;;;;;;;20.45;60.48;99025.95;1707793;84;21029;-42
2021/06/14 07:07:28;;;;;;;4.00;3.20;;;;;;;20.47;60.49;99030.43;1707684;84;21057;-42
2021/06/14 07:09:54;;;;;;;5.25;3.58;;;;;;;20.51;60.47;99033.27;1707738;84;21527;-42
2021/06/14 07:12:20;;;;;;;5.83;3.25;;;;;;;20.58;59.85;99029.52;1707525;84;21029;-42
2021/06/14 07:14:47;;;;;;;4.30;3.10;;;;;;;20.69;59.93;99038.28;1707712;84;21124;-42
2021/06/14 07:17:14;;;;;;;4.90;3.65;;;;;;;20.76;59.65;99036.72;1707536;84;21474;-42
2021/06/14 07:19:40;;;;;;;5.30;3.45;;;;;;;20.82;59.75;99041.84;1707460;83;20981;-42
2021/06/14 07:22:07;;;;;;;6.85;3.45;;;;;;;20.84;59.19;99044.95;1707565;84;21008;-42
2021/06/14 07:24:34;;;;;;;6.55;3.65;;;;;;;20.83;59.44;99048.91;1707382;84;21048;-41
2021/06/14 07:27:01;;;;;;;6.05;3.05;;;;;;;20.80;59.14;99048.41;1707750;84;21904;-42
2021/06/14 07:29:28;;;;;;;5.72;3.52;;;;;;;20.85;59.94;99047.88;1707712;84;21033;-42
2021/06/14 07:31:57;;;;;;;4.47;3.20;;;;;;;20.98;60.53;99061.09;1707400;84;20976;-42
2021/06/14 07:34:24;;;;;;;4.50;3.50;;;;;;;21.15;59.69;99065.38;1707481;84;20980;-41
2021/06/14 07:36:52;;;;;;;4.00;3.40;;;;;;;21.28;59.54;99061.85;1707566;84;21030;-42
2021/06/14 07:39:19;;;;;;;7.40;3.33;;;;;;;21.35;59.50;99065.16;1707587;84;21103;-42
2021/06/14 07:41:45;;;;;;;4.28;2.83;;;;;;;21.40;58.74;99070.13;1707441;84;21021;-42
2021/06/14 07:44:12;;;;;;;6.25;3.47;;;;;;;21.43;58.37;99070.66;1707561;84;21575;-42
2021/06/14 07:46:39;;;;;;;5.90;3.25;;;;;;;21.46;58.72;99071.14;1707385;84;20929;-42
2021/06/14 07:49:06;;;;;;;5.05;3.30;;;;;;;21.54;58.29;99074.48;1707586;84;21045;-42
2021/06/14 07:51:34;;;;;;;8.20;3.10;;;;;;;21.65;59.01;99072.92;1707585;84;21853;-42
2021/06/14 07:54:00;;;;;;;4.35;3.50;;;;;;;21.79;58.60;99075.84;1707351;84;21028;-42
2021/06/14 07:56:28;;;;;;;4.53;3.15;;;;;;;21.89;57.54;99082.25;1707659;84;20984;-42
2021/06/14 07:58:54;;;;;;;5.92;3.55;;;;;;;21.89;57.66;99078.88;1707786;84;21582;-42
2021/06/14 08:01:21;;;;;;;3.80;3.40;;;;;;;21.89;57.25;99082.25;1707666;84;21283;-42
2021/06/14 08:03:48;;;;;;;5.65;3.47;;;;;;;21.87;57.03;99082.70;1707694;84;21137;-42
2021/06/14 08:06:15;;;;;;;4.42;3.33;;;;;;;21.86;57.77;99092.20;1707426;84;20968;-42
2021/06/14 08:08:42;;;;;;;5.60;3.47;;;;;;;21.86;58.07;99090.81;1707586;84;20953;-42
2021/06/14 08:11:09;;;;;;;5.20;3.40;;;;;;;21.86;57.65;99092.20;1707437;84;20994;-42
2021/06/14 08:13:36;;;;;;;5.15;3.27;;;;;;;21.88;58.04;99093.89;1707859;84;21068;-42
2021/06/14 08:16:08;;;;;;;4.85;3.27;;;;;;;21.90;58.02;99095.61;1707465;84;21088;-42
2021/06/14 08:18:47;;;;;;;3.80;3.10;;;;;;;21.93;57.60;99091.98;1709719;83;21005;-42
2021/06/14 08:26:28;;;;;;;4.70;3.10;;;;;;;22.25;57.88;99098.48;1715556;83;21100;-42
2021/06/14 08:29:00;;;;;;;4.40;3.37;;;;;;;22.32;57.31;99098.24;1715311;83;21785;-42
2021/06/14 08:31:27;;;;;;;4.12;3.22;;;;;;;22.33;56.64;99103.33;1714333;83;21593;-43
2021/06/14 08:33:54;;;;;;;3.80;3.27;;;;;;;22.31;57.52;99114.67;1714453;83;21036;-42
2021/06/14 08:36:22;;;;;;;3.40;2.87;;;;;;;22.29;57.39;99115.71;1714995;83;20981;-42
2021/06/14 08:38:50;;;;;;;6.40;3.33;;;;;;;22.29;57.75;99109.58;1715220;83;21728;-42
2021/06/14 08:41:18;;;;;;;4.83;3.35;;;;;;;22.31;57.69;99117.44;1715146;83;21137;-42
2021/06/14 08:43:50;;;;;;;8.35;3.60;;;;;;;22.36;57.69;99114.89;1715309;83;21210;-42
2021/06/14 08:46:17;;;;;;;4.08;3.60;;;;;;;22.42;57.32;99115.84;1715226;83;20976;-42
2021/06/14 08:48:44;;;;;;;4.33;3.42;;;;;;;22.50;57.93;99115.02;1715231;83;21019;-42
2021/06/14 08:51:12;;;;;;;4.72;3.12;;;;;;;22.60;57.56;99122.19;1715071;83;21037;-42
2021/06/14 08:53:39;;;;;;;4.90;3.55;;;;;;;22.68;57.03;99123.48;1715129;83;21140;-42
2021/06/14 08:56:06;;;;;;;5.47;3.70;;;;;;;22.76;56.55;99131.70;1715073;83;21564;-42
2021/06/14 08:58:33;;;;;;;6.08;3.77;;;;;;;22.85;56.88;99133.80;1714955;83;20985;-42
2021/06/14 09:01:00;;;;;;;3.98;3.55;;;;;;;22.95;56.75;99138.94;1715098;83;21021;-42
2021/06/14 09:03:28;;;;;;;5.47;3.45;;;;;;;23.06;57.27;99141.94;1715347;83;21095;-42
2021/06/14 09:05:56;;;;;;;7.55;3.72;;;;;;;23.19;56.09;99142.05;1715202;83;21063;-42
2021/06/14 09:08:24;;;;;;;4.47;3.55;;;;;;;23.33;55.79;99138.02;1715346;83;21012;-42
2021/06/14 09:10:52;;;;;;;5.28;3.55;;;;;;;23.44;55.15;99137.59;1714954;83;21024;-42
2021/06/14 09:13:22;;;;;;;4.70;3.22;;;;;;;23.44;54.96;99145.90;1715471;83;21292;-42
2021/06/14 09:16:13;;;;;;;8.38;3.60;;;;;;;23.32;54.41;99146.92;1715039;83;21036;-42
2021/06/14 09:18:42;;;;;;;5.33;3.30;;;;;;;23.20;55.36;99148.34;1712912;83;21151;-42
2021/06/14 09:21:12;;;;;;;4.55;3.40;;;;;;;23.08;55.55;99164.40;1707438;84;21804;-42
2021/06/14 09:23:52;;;;;;;5.85;3.30;;;;;;;23.00;56.32;99159.71;1707645;84;21526;-42
2021/06/14 09:26:31;;;;;;;5.53;3.85;;;;;;;22.89;56.38;99156.56;1707566;84;21044;-42
2021/06/14 09:29:09;;;;;;;4.65;3.55;;;;;;;22.82;56.87;99156.19;1707602;84;22180;-42
2021/06/14 09:34:12;;;;;;;7.35;3.50;;;;;;;22.78;56.78;99154.16;1831002;78;22528;-42
2021/06/14 09:36:39;;;;;;;4.05;3.27;;;;;;;22.67;57.10;99163.37;1802952;79;21505;-42
2021/06/14 09:39:14;;;;;;;7.03;3.65;;;;;;;22.66;57.06;99162.43;1802992;79;21094;-42
2021/06/14 09:41:48;;;;;;;6.75;3.75;;;;;;;;;;1798677;78;21008;-42
2021/06/14 09:44:32;;;;;;;4.17;3.30;;;;;;;22.56;57.13;99166.34;1777935;80;21004;-42
2021/06/14 09:47:05;;;;;;;5.97;3.60;;;;;;;22.53;57.50;99169.38;1749977;80;20980;-42
2021/06/14 09:49:33;;;;;;;8.08;3.52;;;;;;;22.56;57.71;99169.86;1777734;80;20965;-41
2021/06/14 09:51:59;;;;;;;5.92;3.50;;;;;;;22.73;57.96;99166.38;1778160;80;21762;-42
2021/06/14 09:54:32;;;;;;;4.35;3.12;;;;;;;22.98;58.17;99160.02;1777760;80;21574;-42
2021/06/14 09:57:03;;;;;;;4.67;3.00;;;;;;;23.24;57.19;99162.81;1778186;80;21812;-42
2021/06/14 09:59:41;;;;;;;8.55;4.50;;;;;;;23.45;57.12;99163.47;1777799;80;20925;-42
2021/06/14 10:02:21;;;;;;;5.03;4.00;;;;;;;23.61;55.47;99166.05;1778028;80;20932;-42
2021/06/14 10:04:41;;;;;;;4.90;3.90;;;;;;;23.67;54.42;99169.00;1774797;80;21133;-42
2021/06/14 10:07:14;;;;;;;6.65;3.90;;;;;;;23.70;54.72;99170.86;1777669;80;20972;-42
2021/06/14 10:09:44;;;;;;;9.00;4.17;;;;;;;23.78;54.38;99173.51;1777543;80;21645;-42
2021/06/14 10:12:20;;;;;;;6.90;3.70;;;;;;;23.90;53.76;99166.35;1778027;80;21060;-42
2021/06/14 10:14:58;;;;;;;5.65;4.35;;;;;;;24.04;53.77;99169.34;1777645;80;21079;-42
2021/06/14 10:17:40;;;;;;;8.18;4.15;;;;;;;24.15;53.63;99164.78;1801039;79;21136;-42
2021/06/14 10:20:15;;;;;;;5.58;3.95;;;;;;;24.24;53.07;99162.07;1804655;79;21025;-42
2021/06/14 10:22:43;;;;;;;5.45;4.12;;;;;;;24.35;52.73;99169.32;1804818;79;20950;-42
2021/06/14 10:25:11;;;;;;;7.90;3.92;;;;;;;24.54;52.26;99175.09;1804740;79;21010;-42
2021/06/14 10:27:38;;;;;;;5.62;3.80;;;;;;;24.79;51.85;99176.04;1804876;79;21017;-42
2021/06/14 10:30:07;;;;;;;5.37;3.72;;;;;;;25.04;51.52;99177.95;1804518;79;21441;-43
2021/06/14 10:32:38;;;;;;;4.00;3.00;;;;;;;25.23;50.26;99177.33;1804243;79;20961;-42
2021/06/14 10:35:07;;;;;;;6.10;3.67;;;;;;;25.24;49.88;99169.78;1802271;78;20989;-42
2021/06/14 10:37:46;;;;;;;5.55;3.77;;;;;;;25.15;50.40;99173.34;1802501;79;21500;-42
2021/06/14 10:40:23;;;;;;;4.62;3.67;;;;;;;25.07;50.70;99177.66;1802178;79;21444;-42
2021/06/14 10:42:50;;;;;;;5.90;3.80;;;;;;;25.17;50.98;99174.27;1802460;79;21094;-42
2021/06/14 10:45:19;;;;;;;4.25;3.70;;;;;;;25.31;51.77;99173.03;1801833;79;20982;-42
2021/06/14 10:47:47;;;;;;;6.65;3.90;;;;;;;25.39;50.28;99172.86;1726128;83;20938;-42
2021/06/14 10:50:18;;;;;;;7.45;3.67;;;;;;;25.32;49.86;99171.03;1801519;79;21057;-42
2021/06/14 10:52:45;;;;;;;4.67;3.60;;;;;;;25.18;50.62;99175.79;1801554;79;20990;-42
2021/06/14 10:55:18;;;;;;;7.65;3.47;;;;;;;25.02;50.61;99180.44;1801530;79;21102;-42
2021/06/14 10:57:45;;;;;;;6.47;3.80;;;;;;;24.99;50.98;99183.34;1801820;79;20949;-42
2021/06/14 11:00:27;;;;;;;7.15;3.67;;;;;;;25.01;51.82;99173.95;1801527;79;20985;-42
2021/06/14 11:02:56;;;;;;;4.17;3.52;;;;;;;25.21;51.74;99176.27;1801721;79;20962;-42
2021/06/14 11:05:46;;;;;;;5.15;3.75;;;;;;;25.45;50.92;99170.23;1801553;79;21026;-42
2021/06/14 11:08:21;;;;;;;4.05;3.40;;;;;;;25.45;50.92;99170.23;1725856;83;21195;-42
2021/06/14 11:11:06;;;;;;;6.15;3.17;;;;;;;25.67;49.45;99172.84;1801325;79;21475;-43
2021/06/14 11:13:48;;;;;;;4.78;3.40;;;;;;;25.87;49.36;99163.37;1801512;79;21472;-42
2021/06/14 11:16:15;;;;;;;4.10;3.40;;;;;;;26.26;48.55;99167.12;1793078;79;21004;-42
2021/06/14 11:18:42;;;;;;;6.85;3.30;;;;;;;26.64;48.37;99167.21;1780966;80;20986;-42
2021/06/14 11:21:21;;;;;;;4.40;3.67;;;;;;;27.05;46.61;99168.36;1781157;80;21879;-42
2021/06/14 11:23:49;;;;;;;4.40;3.60;;;;;;;27.33;46.12;99163.94;1781062;80;20989;-43
2021/06/14 11:26:27;;;;;;;5.45;3.65;;;;;;;27.49;45.73;99161.50;1781179;80;20968;-43
2021/06/14 11:28:54;;;;;;;5.20;3.35;;;;;;;27.59;44.86;99153.82;1780982;80;20969;-43
2021/06/14 11:31:29;;;;;;;4.03;3.45;;;;;;;27.74;44.60;99160.78;1748653;80;21025;-43
2021/06/14 11:34:01;;;;;;;4.37;3.25;;;;;;;27.82;44.47;99158.52;1775572;80;21096;-42
2021/06/14 11:36:30;;;;;;;3.98;3.30;;;;;;;27.75;44.32;99160.28;1772885;80;21031;-42
2021/06/14 11:38:59;;;;;;;4.53;3.10;;;;;;;27.75;44.60;99164.46;1772674;80;20996;-43
2021/06/14 11:41:31;;;;;;;4.28;3.15;;;;;;;27.90;45.14;99153.31;1773180;81;21011;-42
2021/06/14 11:44:29;;;;;;;4.40;3.08;;;;;;;28.17;43.68;99145.28;1772788;81;21020;-43
2021/06/14 11:47:11;;;;;;;4.87;2.95;;;;;;;28.39;42.92;99145.59;1768366;79;21719;-42
2021/06/14 11:49:38;;;;;;;5.37;3.00;;;;;;;28.60;42.92;99141.58;1766424;81;21543;-42
2021/06/14 11:52:22;;;;;;;2.72;2.40;;;;;;;28.85;43.49;99143.69;1766622;81;20977;-42